createdAt,value
2022-10-08T00:00:33.392Z,0
2022-10-08T00:05:37.538Z,0
2022-10-08T00:10:41.680Z,0
2022-10-08T00:15:45.865Z,0
2022-10-08T00:20:50.059Z,0
2022-10-08T00:25:54.195Z,0
2022-10-08T00:30:58.357Z,0
2022-10-08T00:36:02.518Z,0
2022-10-08T00:41:06.707Z,0
2022-10-08T00:46:10.940Z,0
2022-10-08T00:51:14.999Z,0
2022-10-08T00:56:17.252Z,0
2022-10-08T01:01:21.505Z,0
2022-10-08T01:06:25.556Z,0
2022-10-08T01:11:29.762Z,0
2022-10-08T01:16:33.962Z,0
2022-10-08T01:21:36.191Z,0
2022-10-08T01:26:40.343Z,0
2022-10-08T01:31:42.792Z,0
2022-10-08T01:36:46.791Z,0
2022-10-08T01:41:49.024Z,0
2022-10-08T01:46:53.229Z,0
2022-10-08T01:51:57.380Z,0
2022-10-08T01:56:59.640Z,0
2022-10-08T02:02:03.876Z,0
2022-10-08T02:07:07.945Z,0
2022-10-08T02:17:16.260Z,0
2022-10-08T02:22:20.451Z,0
2022-10-08T02:27:24.590Z,0
2022-10-08T02:32:28.784Z,0
2022-10-08T02:37:32.915Z,0
2022-10-08T02:42:37.118Z,0
2022-10-08T02:47:41.265Z,0
2022-10-08T02:52:45.796Z,0
2022-10-08T02:57:49.564Z,0
2022-10-08T03:02:53.717Z,0
2022-10-08T03:07:57.898Z,0
2022-10-08T03:13:02.075Z,0
2022-10-08T03:18:06.183Z,0
2022-10-08T03:23:10.360Z,0
2022-10-08T03:28:14.629Z,0
2022-10-08T03:33:18.678Z,0
2022-10-08T03:38:22.869Z,0
2022-10-08T03:43:27.046Z,0
2022-10-08T03:48:29.271Z,0
2022-10-08T03:53:33.456Z,0
2022-10-08T03:58:37.610Z,0
2022-10-08T04:03:41.779Z,0
2022-10-08T04:08:45.931Z,0
2022-10-08T04:13:48.233Z,0
2022-10-08T04:18:52.378Z,0
2022-10-08T04:23:56.526Z,0
2022-10-08T04:29:00.672Z,0
2022-10-08T04:34:04.881Z,0
2022-10-08T04:39:09.027Z,0
2022-10-08T04:44:13.147Z,0
2022-10-08T04:49:17.337Z,0
2022-10-08T04:54:21.517Z,0
2022-10-08T04:59:25.666Z,0
2022-10-08T05:04:29.830Z,0
2022-10-08T05:09:34.000Z,0
2022-10-08T05:14:38.157Z,0
2022-10-08T05:19:42.307Z,0
2022-10-08T05:29:50.614Z,5
2022-10-08T05:34:54.820Z,9
2022-10-08T05:39:58.934Z,10
2022-10-08T05:45:03.068Z,18
2022-10-08T05:50:07.545Z,56
2022-10-08T05:55:11.450Z,116
2022-10-08T06:00:15.585Z,109
2022-10-08T06:05:17.867Z,130
2022-10-08T06:10:22.010Z,241
2022-10-08T06:15:26.193Z,441
2022-10-08T06:20:32.125Z,387
2022-10-08T06:25:34.474Z,870
2022-10-08T06:30:38.635Z,822
2022-10-08T06:35:42.786Z,398
2022-10-08T06:40:46.987Z,787
2022-10-08T06:45:51.147Z,965
2022-10-08T06:50:55.303Z,1875
2022-10-08T06:55:59.452Z,1775
2022-10-08T07:01:03.765Z,2575
2022-10-08T07:06:07.797Z,2915
2022-10-08T07:16:20.483Z,1186
2022-10-08T07:21:20.297Z,1120
2022-10-08T07:26:24.419Z,1270
2022-10-08T07:31:28.647Z,4432
2022-10-08T07:36:32.735Z,2925
2022-10-08T07:41:36.926Z,3684
2022-10-08T07:46:41.069Z,2265
2022-10-08T07:51:45.202Z,2865
2022-10-08T07:56:47.502Z,4135
2022-10-08T08:01:51.693Z,2691
2022-10-08T08:06:53.952Z,4100
2022-10-08T08:11:58.114Z,2884
2022-10-08T08:17:02.287Z,4496
2022-10-08T08:22:04.509Z,4985
2022-10-08T08:27:08.653Z,5978
2022-10-08T08:32:12.958Z,5560
2022-10-08T08:37:17.013Z,3430
2022-10-08T08:42:21.176Z,6141
2022-10-08T08:47:25.330Z,5923
2022-10-08T08:52:29.472Z,5330
2022-10-08T08:57:33.654Z,3933
2022-10-08T09:02:37.801Z,5487
2022-10-08T09:07:41.959Z,5628
2022-10-08T09:12:46.437Z,5670
2022-10-08T09:17:50.288Z,3320
2022-10-08T09:22:54.475Z,6071
2022-10-08T09:27:58.625Z,6697
2022-10-08T09:33:02.755Z,5420
2022-10-08T09:38:06.946Z,4577
2022-10-08T09:43:11.119Z,4473
2022-10-08T09:48:15.216Z,5631
2022-10-08T09:53:19.426Z,5200
2022-10-08T09:58:23.557Z,3979
2022-10-08T10:03:31.820Z,3941
2022-10-08T10:08:29.974Z,6886
2022-10-08T10:13:34.148Z,8540
2022-10-08T10:18:36.420Z,8462
2022-10-08T10:23:40.586Z,6541
2022-10-08T10:28:44.783Z,11129
2022-10-08T10:33:48.897Z,8510
2022-10-08T10:38:53.066Z,3282
2022-10-08T10:43:57.211Z,2165
2022-10-08T10:49:01.390Z,2777
2022-10-08T10:54:05.515Z,7127
2022-10-08T10:59:09.682Z,9678
2022-10-08T11:04:13.856Z,4740
2022-10-08T11:09:19.061Z,2977
2022-10-08T11:14:22.193Z,5048
2022-10-08T11:19:26.329Z,5794
2022-10-08T11:24:30.649Z,3528
2022-10-08T11:29:34.626Z,5419
2022-10-08T11:34:38.831Z,4185
2022-10-08T11:39:42.968Z,4220
2022-10-08T11:44:47.119Z,2884
2022-10-08T11:49:51.428Z,4641
2022-10-08T11:54:56.024Z,2785
2022-10-08T12:00:02.021Z,2255
2022-10-08T12:05:01.921Z,1738
2022-10-08T12:10:06.032Z,1795
2022-10-08T12:15:08.357Z,2320
2022-10-08T12:20:12.599Z,2249
2022-10-08T12:25:16.628Z,2548
2022-10-08T12:30:20.783Z,3600
2022-10-08T12:35:25.000Z,2400
2022-10-08T12:40:29.146Z,3842
2022-10-08T12:45:33.316Z,3350
2022-10-08T12:50:37.478Z,1982
2022-10-08T12:55:41.634Z,2989
2022-10-08T13:00:45.876Z,2517
2022-10-08T13:05:49.937Z,2819
2022-10-08T13:10:54.101Z,3915
2022-10-08T13:15:58.294Z,7050
2022-10-08T13:21:02.417Z,6485
2022-10-08T13:31:10.770Z,4572
2022-10-08T13:36:14.914Z,2248
2022-10-08T13:41:19.082Z,5598
2022-10-08T13:46:23.272Z,5857
2022-10-08T13:51:27.351Z,6576
2022-10-08T13:56:31.491Z,3505
2022-10-08T14:01:35.732Z,2651
2022-10-08T14:06:37.948Z,1961
2022-10-08T14:11:42.089Z,1893
2022-10-08T14:16:44.474Z,1720
2022-10-08T14:21:48.549Z,2019
2022-10-08T14:26:52.681Z,2747
2022-10-08T14:31:56.940Z,5386
2022-10-08T14:37:01.013Z,3987
2022-10-08T14:42:05.184Z,2092
2022-10-08T14:47:09.353Z,1985
2022-10-08T14:52:13.499Z,1827
2022-10-08T14:57:17.637Z,1989
2022-10-08T15:02:21.845Z,1905
2022-10-08T15:07:25.970Z,2001
2022-10-08T15:17:34.319Z,1789
2022-10-08T15:22:38.455Z,1718
2022-10-08T15:27:42.624Z,1596
2022-10-08T15:32:46.994Z,1549
2022-10-08T15:37:50.944Z,1498
2022-10-08T15:42:55.101Z,1445
2022-10-08T15:47:59.270Z,1476
2022-10-08T15:53:03.452Z,2470
2022-10-08T15:58:07.568Z,3580
2022-10-08T16:03:11.762Z,3235
2022-10-08T16:08:14.011Z,2691
2022-10-08T16:13:18.166Z,2003
2022-10-08T16:18:20.456Z,910
2022-10-08T16:23:24.583Z,800
2022-10-08T16:28:26.947Z,730
2022-10-08T16:33:31.015Z,606
2022-10-08T16:43:39.354Z,471
2022-10-08T16:48:43.490Z,325
2022-10-08T16:53:47.663Z,220
2022-10-08T16:58:51.849Z,139
2022-10-08T17:03:55.997Z,81
2022-10-08T17:09:00.187Z,45
2022-10-08T17:14:04.285Z,20
2022-10-08T17:19:08.494Z,7
2022-10-08T17:24:12.694Z,2
2022-10-08T17:29:16.786Z,0
2022-10-08T17:34:20.961Z,0
2022-10-08T17:39:25.120Z,0
2022-10-08T17:44:31.296Z,0
2022-10-08T17:49:33.464Z,0
2022-10-08T17:54:35.720Z,0
2022-10-08T17:59:39.885Z,0
2022-10-08T18:04:44.056Z,0
2022-10-08T18:09:48.211Z,0
2022-10-08T18:14:52.353Z,0
2022-10-08T18:19:54.640Z,0
2022-10-08T18:24:58.777Z,0
2022-10-08T18:30:02.976Z,0
2022-10-08T18:35:05.204Z,0
2022-10-08T18:40:09.420Z,0
2022-10-08T18:45:13.539Z,0
2022-10-08T18:50:17.720Z,0
2022-10-08T18:55:21.885Z,0
2022-10-08T19:00:26.033Z,0
2022-10-08T19:05:30.190Z,0
2022-10-08T19:10:34.368Z,0
2022-10-08T19:15:40.571Z,0
2022-10-08T19:20:42.654Z,0
2022-10-08T19:25:46.845Z,0
2022-10-08T19:30:51.057Z,0
2022-10-08T19:35:55.175Z,0
2022-10-08T19:40:59.344Z,0
2022-10-08T19:46:03.579Z,0
2022-10-08T19:51:07.680Z,0
2022-10-08T19:56:11.810Z,0
2022-10-08T20:01:15.978Z,0
2022-10-08T20:06:24.235Z,0
2022-10-08T20:11:24.327Z,0
2022-10-08T20:16:28.505Z,0
2022-10-08T20:21:30.745Z,0
2022-10-08T20:26:34.920Z,0
2022-10-08T20:31:39.104Z,0
2022-10-08T20:36:43.224Z,0
2022-10-08T20:41:51.636Z,0
2022-10-08T20:46:51.657Z,0
2022-10-08T20:51:55.734Z,0
2022-10-08T20:57:04.114Z,0
2022-10-08T21:02:04.158Z,0
2022-10-08T21:07:08.257Z,0
2022-10-08T21:12:12.403Z,0
2022-10-08T21:17:16.529Z,0
2022-10-08T21:22:20.779Z,0
2022-10-08T21:27:24.835Z,0
2022-10-08T21:32:28.992Z,0
2022-10-08T21:37:34.760Z,0
2022-10-08T21:42:37.376Z,0
2022-10-08T21:47:41.476Z,0
2022-10-08T21:52:46.036Z,0
2022-10-08T21:57:49.815Z,0
2022-10-08T22:02:54.011Z,0
2022-10-08T22:07:56.433Z,0
2022-10-08T22:13:00.583Z,0
2022-10-08T22:18:04.583Z,0
2022-10-08T22:23:08.755Z,0
2022-10-08T22:28:12.981Z,0
2022-10-08T22:33:17.103Z,0
2022-10-08T22:38:21.233Z,0
2022-10-08T22:43:25.771Z,0
2022-10-08T22:48:29.564Z,0
2022-10-08T22:53:33.714Z,0
2022-10-08T22:58:37.909Z,0
2022-10-08T23:03:42.132Z,0
2022-10-08T23:08:46.219Z,0
2022-10-08T23:13:50.378Z,0
2022-10-08T23:18:54.581Z,0
2022-10-08T23:23:58.707Z,0
2022-10-08T23:29:02.865Z,0
2022-10-08T23:34:07.038Z,0
2022-10-08T23:39:11.184Z,0
2022-10-08T23:44:15.399Z,0
2022-10-08T23:49:19.525Z,0
2022-10-08T23:54:21.780Z,0
2022-10-08T23:59:25.981Z,0
